createdAt,value
2022-10-19T00:01:33.434Z,10.90
2022-10-19T00:04:04.863Z,10.80
2022-10-19T00:06:38.434Z,10.70
2022-10-19T00:09:10.993Z,10.70
2022-10-19T00:11:43.900Z,10.70
2022-10-19T00:14:16.323Z,10.80
2022-10-19T00:16:47.316Z,10.90
2022-10-19T00:19:21.772Z,10.90
2022-10-19T00:21:52.420Z,10.90
2022-10-19T00:24:22.321Z,10.90
2022-10-19T00:26:51.175Z,11.00
2022-10-19T00:29:21.371Z,11.00
2022-10-19T00:31:50.766Z,11.10
2022-10-19T00:34:19.962Z,11.10
2022-10-19T00:36:48.893Z,11.10
2022-10-19T00:39:20.099Z,11.10
2022-10-19T00:41:49.626Z,11.20
2022-10-19T00:45:04.422Z,11.30
2022-10-19T00:47:33.844Z,11.30
2022-10-19T00:50:02.333Z,11.30
2022-10-19T00:52:31.896Z,11.40
2022-10-19T00:55:03.455Z,11.50
2022-10-19T00:57:33.521Z,11.40
2022-10-19T01:00:07.321Z,11.50
2022-10-19T01:02:36.625Z,11.50
2022-10-19T01:05:08.664Z,11.50
2022-10-19T01:07:37.343Z,11.50
2022-10-19T01:10:09.593Z,11.50
2022-10-19T01:13:05.616Z,11.50
2022-10-19T01:15:49.828Z,11.50
2022-10-19T01:18:28.955Z,11.60
2022-10-19T01:21:29.869Z,11.60
2022-10-19T01:24:39.799Z,11.50
2022-10-19T01:28:04.130Z,11.60
2022-10-19T01:30:51.572Z,11.50
2022-10-19T01:33:38.595Z,11.50
2022-10-19T01:36:21.987Z,11.40
2022-10-19T01:38:59.888Z,11.50
2022-10-19T01:41:42.415Z,11.50
2022-10-19T01:44:19.828Z,11.30
2022-10-19T01:46:56.151Z,11.40
2022-10-19T01:49:34.192Z,11.40
2022-10-19T01:52:10.141Z,11.40
2022-10-19T01:54:45.682Z,11.40
2022-10-19T01:57:22.143Z,11.50
2022-10-19T01:59:52.688Z,11.50
2022-10-19T02:02:26.936Z,11.40
2022-10-19T02:04:58.596Z,11.40
2022-10-19T02:07:28.787Z,11.40
2022-10-19T02:09:58.030Z,11.40
2022-10-19T02:12:29.732Z,11.40
2022-10-19T02:15:04.229Z,11.40
2022-10-19T02:17:41.226Z,11.30
2022-10-19T02:20:11.260Z,11.40
2022-10-19T02:22:40.828Z,11.50
2022-10-19T02:25:11.284Z,11.40
2022-10-19T02:27:42.719Z,11.50
2022-10-19T02:30:13.815Z,11.50
2022-10-19T02:32:44.970Z,11.40
2022-10-19T02:35:15.774Z,11.40
2022-10-19T02:37:45.124Z,11.40
2022-10-19T02:40:14.719Z,11.30
2022-10-19T02:42:49.461Z,11.40
2022-10-19T02:45:25.080Z,11.40
2022-10-19T02:48:01.776Z,11.40
2022-10-19T02:50:31.055Z,11.40
2022-10-19T02:53:00.427Z,11.30
2022-10-19T02:55:31.202Z,11.30
2022-10-19T02:57:59.768Z,11.30
2022-10-19T03:00:28.740Z,11.40
2022-10-19T03:02:58.704Z,11.00
2022-10-19T03:05:27.905Z,11.40
2022-10-19T03:07:56.676Z,11.50
2022-10-19T03:10:25.610Z,11.50
2022-10-19T03:12:54.052Z,11.50
2022-10-19T03:15:24.689Z,11.50
2022-10-19T03:17:54.403Z,11.50
2022-10-19T03:20:24.727Z,11.40
2022-10-19T03:25:27.239Z,11.40
2022-10-19T03:27:55.740Z,11.50
2022-10-19T03:30:25.052Z,11.50
2022-10-19T03:32:53.455Z,11.40
2022-10-19T03:35:21.881Z,11.40
2022-10-19T03:37:51.612Z,11.40
2022-10-19T03:40:20.158Z,11.40
2022-10-19T03:42:49.149Z,11.30
2022-10-19T03:45:17.665Z,11.40
2022-10-19T03:47:50.555Z,11.40
2022-10-19T03:50:21.127Z,11.30
2022-10-19T03:52:51.791Z,11.30
2022-10-19T03:55:20.240Z,11.30
2022-10-19T03:57:49.201Z,11.30
2022-10-19T04:00:18.098Z,11.30
2022-10-19T04:02:46.613Z,11.30
2022-10-19T04:05:15.510Z,11.30
2022-10-19T04:07:44.565Z,11.30
2022-10-19T04:10:14.706Z,11.30
2022-10-19T04:12:43.760Z,10.10
2022-10-19T04:15:12.614Z,11.40
2022-10-19T04:17:41.039Z,11.30
2022-10-19T04:20:11.344Z,11.40
2022-10-19T04:22:39.811Z,11.40
2022-10-19T04:25:12.321Z,11.50
2022-10-19T04:27:42.288Z,11.50
2022-10-19T04:30:12.000Z,11.60
2022-10-19T04:32:40.924Z,11.60
2022-10-19T04:35:10.265Z,11.60
2022-10-19T04:37:39.192Z,11.60
2022-10-19T04:40:14.227Z,11.60
2022-10-19T04:42:45.321Z,11.60
2022-10-19T04:45:14.067Z,11.60
2022-10-19T04:47:42.471Z,11.60
2022-10-19T04:50:11.154Z,11.60
2022-10-19T04:52:39.808Z,11.60
2022-10-19T04:55:09.591Z,11.60
2022-10-19T04:57:38.475Z,11.60
2022-10-19T05:00:10.605Z,11.60
2022-10-19T05:02:44.601Z,11.50
2022-10-19T05:05:14.370Z,11.60
2022-10-19T05:07:42.860Z,11.50
2022-10-19T05:10:12.896Z,11.50
2022-10-19T05:12:41.326Z,11.50
2022-10-19T05:15:12.259Z,11.50
2022-10-19T05:17:40.674Z,11.50
2022-10-19T05:20:11.275Z,11.40
2022-10-19T05:22:40.675Z,11.40
2022-10-19T05:25:10.303Z,11.40
2022-10-19T05:27:39.452Z,11.40
2022-10-19T05:30:11.134Z,11.40
2022-10-19T05:32:39.671Z,11.40
2022-10-19T05:35:09.232Z,11.40
2022-10-19T05:37:38.167Z,11.30
2022-10-19T05:40:08.744Z,11.30
2022-10-19T05:42:37.514Z,11.30
2022-10-19T05:45:07.258Z,11.20
2022-10-19T05:47:37.313Z,11.20
2022-10-19T05:50:07.356Z,11.20
2022-10-19T05:52:36.148Z,11.10
2022-10-19T05:55:05.480Z,11.10
2022-10-19T05:57:34.186Z,11.10
2022-10-19T06:00:03.460Z,11.10
2022-10-19T06:02:42.021Z,11.10
2022-10-19T06:05:11.212Z,11.00
2022-10-19T06:07:39.622Z,11.00
2022-10-19T06:10:10.208Z,11.00
2022-10-19T06:12:39.414Z,11.00
2022-10-19T06:15:09.697Z,11.00
2022-10-19T06:17:38.647Z,11.00
2022-10-19T06:20:09.571Z,11.00
2022-10-19T06:22:38.089Z,11.00
2022-10-19T06:25:08.261Z,11.00
2022-10-19T06:27:37.649Z,11.10
2022-10-19T06:30:08.854Z,11.10
2022-10-19T06:32:37.887Z,11.20
2022-10-19T06:35:08.927Z,11.90
2022-10-19T06:37:37.426Z,11.20
2022-10-19T06:40:07.395Z,11.30
2022-10-19T06:42:38.922Z,11.40
2022-10-19T06:45:10.372Z,11.30
2022-10-19T06:47:39.479Z,11.30
2022-10-19T06:50:10.965Z,11.30
2022-10-19T06:52:40.725Z,11.30
2022-10-19T06:55:10.597Z,11.40
2022-10-19T06:57:39.574Z,11.50
2022-10-19T07:00:09.588Z,11.50
2022-10-19T07:02:38.035Z,11.50
2022-10-19T07:05:09.363Z,11.60
2022-10-19T07:07:38.415Z,11.60
2022-10-19T07:10:08.010Z,11.70
2022-10-19T07:12:36.773Z,11.70
2022-10-19T07:15:06.861Z,11.80
2022-10-19T07:17:36.338Z,11.80
2022-10-19T07:20:06.180Z,11.80
2022-10-19T07:22:36.587Z,11.80
2022-10-19T07:25:06.544Z,11.90
2022-10-19T07:27:40.033Z,12.00
2022-10-19T07:30:10.161Z,12.10
2022-10-19T07:32:41.087Z,12.10
2022-10-19T07:35:12.943Z,12.10
2022-10-19T07:37:43.420Z,12.20
2022-10-19T07:40:13.995Z,12.20
2022-10-19T07:42:42.471Z,12.20
2022-10-19T07:45:11.946Z,12.20
2022-10-19T07:47:40.355Z,12.20
2022-10-19T07:50:10.892Z,12.30
2022-10-19T07:52:39.959Z,12.20
2022-10-19T07:55:11.063Z,12.20
2022-10-19T07:57:41.587Z,12.20
2022-10-19T08:00:14.277Z,12.20
2022-10-19T08:02:54.902Z,12.40
2022-10-19T08:05:29.400Z,12.40
2022-10-19T08:07:58.792Z,12.50
2022-10-19T08:10:29.068Z,12.70
2022-10-19T08:12:57.524Z,12.70
2022-10-19T08:15:26.542Z,12.70
2022-10-19T08:17:55.639Z,12.70
2022-10-19T08:20:24.613Z,12.70
2022-10-19T08:22:56.527Z,12.60
2022-10-19T08:25:28.812Z,12.60
2022-10-19T08:27:57.848Z,12.40
2022-10-19T08:30:26.900Z,12.40
2022-10-19T08:32:55.335Z,12.50
2022-10-19T08:35:24.420Z,12.40
2022-10-19T08:37:53.252Z,12.50
2022-10-19T08:40:27.338Z,12.50
2022-10-19T08:43:06.050Z,12.50
2022-10-19T08:45:44.017Z,12.70
2022-10-19T08:48:28.497Z,12.90
2022-10-19T08:50:59.620Z,13.20
2022-10-19T08:53:41.408Z,13.30
2022-10-19T08:56:51.033Z,13.50
2022-10-19T08:59:33.855Z,13.00
2022-10-19T09:02:17.259Z,12.50
2022-10-19T09:04:51.321Z,12.30
2022-10-19T09:07:28.049Z,12.00
2022-10-19T09:10:02.359Z,12.00
2022-10-19T09:12:43.427Z,12.00
2022-10-19T09:15:19.938Z,12.10
2022-10-19T09:17:48.877Z,12.30
2022-10-19T09:20:21.512Z,12.20
2022-10-19T09:23:04.196Z,12.20
2022-10-19T09:25:38.563Z,12.50
2022-10-19T09:28:29.202Z,12.60
2022-10-19T09:31:05.354Z,12.90
2022-10-19T09:33:39.128Z,13.20
2022-10-19T09:36:14.997Z,13.30
2022-10-19T09:38:52.428Z,13.20
2022-10-19T09:41:24.813Z,12.90
2022-10-19T09:43:56.963Z,12.70
2022-10-19T09:46:42.982Z,12.70
2022-10-19T09:49:11.531Z,12.70
2022-10-19T09:51:50.316Z,12.90
2022-10-19T09:54:34.479Z,13.10
2022-10-19T09:57:03.692Z,13.00
2022-10-19T09:59:37.082Z,12.90
2022-10-19T10:02:21.044Z,12.90
2022-10-19T10:04:58.422Z,12.90
2022-10-19T10:07:36.546Z,12.50
2022-10-19T10:10:12.777Z,12.60
2022-10-19T10:12:41.930Z,12.60
2022-10-19T10:15:18.816Z,12.60
2022-10-19T10:17:51.129Z,13.00
2022-10-19T10:20:27.733Z,13.30
2022-10-19T10:23:01.163Z,13.40
2022-10-19T10:25:34.001Z,13.30
2022-10-19T10:28:19.277Z,13.50
2022-10-19T10:30:54.442Z,13.30
2022-10-19T10:33:40.677Z,13.30
2022-10-19T10:36:14.100Z,13.30
2022-10-19T10:38:48.183Z,13.50
2022-10-19T10:41:23.142Z,13.80
2022-10-19T10:43:58.548Z,14.20
2022-10-19T10:46:35.731Z,14.40
2022-10-19T10:49:08.887Z,14.60
2022-10-19T10:51:49.220Z,14.80
2022-10-19T10:54:23.667Z,15.00
2022-10-19T10:57:16.649Z,15.10
2022-10-19T10:59:57.167Z,15.20
2022-10-19T11:02:36.516Z,15.30
2022-10-19T11:05:14.273Z,15.30
2022-10-19T11:07:46.672Z,15.40
2022-10-19T11:10:26.813Z,15.10
2022-10-19T11:13:06.707Z,14.90
2022-10-19T11:15:46.992Z,15.00
2022-10-19T11:18:23.793Z,15.20
2022-10-19T11:21:10.447Z,15.20
2022-10-19T11:23:53.081Z,15.30
2022-10-19T11:26:44.973Z,15.50
2022-10-19T11:29:42.637Z,15.10
2022-10-19T11:32:24.512Z,14.30
2022-10-19T11:35:13.260Z,13.80
2022-10-19T11:38:18.369Z,13.70
2022-10-19T11:44:01.152Z,14.10
2022-10-19T11:46:43.315Z,14.40
2022-10-19T11:49:32.521Z,14.60
2022-10-19T11:52:12.968Z,14.70
2022-10-19T11:55:03.964Z,14.40
2022-10-19T11:57:39.213Z,14.20
2022-10-19T12:00:33.887Z,14.10
2022-10-19T12:03:34.997Z,14.30
2022-10-19T12:06:15.239Z,14.80
2022-10-19T12:09:08.389Z,14.90
2022-10-19T12:11:59.817Z,14.00
2022-10-19T12:14:35.127Z,13.60
2022-10-19T12:17:11.551Z,13.50
2022-10-19T12:19:47.884Z,13.50
2022-10-19T12:22:23.798Z,13.20
2022-10-19T12:24:56.217Z,13.50
2022-10-19T12:27:34.594Z,13.80
2022-10-19T12:30:09.416Z,13.70
2022-10-19T12:32:56.787Z,13.50
2022-10-19T12:35:56.898Z,13.20
2022-10-19T12:38:43.962Z,13.00
2022-10-19T12:41:30.911Z,12.90
2022-10-19T12:44:35.425Z,13.10
2022-10-19T12:47:13.443Z,13.20
2022-10-19T12:49:49.794Z,13.30
2022-10-19T12:52:39.230Z,13.40
2022-10-19T12:55:34.572Z,13.50
2022-10-19T12:58:07.144Z,13.60
2022-10-19T13:00:39.429Z,13.40
2022-10-19T13:03:16.765Z,13.20
2022-10-19T13:05:58.157Z,12.90
2022-10-19T13:08:32.050Z,12.90
2022-10-19T13:11:07.978Z,13.10
2022-10-19T13:13:58.912Z,13.20
2022-10-19T13:17:00.218Z,12.90
2022-10-19T13:19:29.962Z,12.90
2022-10-19T13:22:26.840Z,13.00
2022-10-19T13:25:27.843Z,13.80
2022-10-19T13:28:02.232Z,12.60
2022-10-19T13:31:09.279Z,12.70
2022-10-19T13:33:49.329Z,12.60
2022-10-19T13:36:19.783Z,12.90
2022-10-19T13:39:06.040Z,13.00
2022-10-19T13:41:50.962Z,12.90
2022-10-19T13:44:28.504Z,13.00
2022-10-19T13:47:39.606Z,13.20
2022-10-19T13:50:40.217Z,13.30
2022-10-19T13:53:29.041Z,13.50
2022-10-19T13:56:21.159Z,13.20
2022-10-19T13:59:37.397Z,12.90
2022-10-19T14:02:59.630Z,12.70
2022-10-19T14:06:01.655Z,12.70
2022-10-19T14:09:04.488Z,12.80
2022-10-19T14:11:37.775Z,12.70
2022-10-19T14:14:16.965Z,12.80
2022-10-19T14:16:54.450Z,12.80
2022-10-19T14:19:29.793Z,12.80
2022-10-19T14:22:17.820Z,12.60
2022-10-19T14:24:46.334Z,12.40
2022-10-19T14:27:22.829Z,12.30
2022-10-19T14:29:54.704Z,12.40
2022-10-19T14:32:27.518Z,12.40
2022-10-19T14:37:38.720Z,12.40
2022-10-19T14:40:26.788Z,12.50
2022-10-19T14:42:57.933Z,12.50
2022-10-19T14:45:30.228Z,12.50
2022-10-19T14:48:02.835Z,12.40
2022-10-19T14:50:44.404Z,12.40
2022-10-19T14:53:37.640Z,12.30
2022-10-19T14:56:13.156Z,12.20
2022-10-19T14:58:50.413Z,12.10
2022-10-19T15:01:21.338Z,12.10
2022-10-19T15:03:52.118Z,12.30
2022-10-19T15:06:27.204Z,12.10
2022-10-19T15:09:01.362Z,12.10
2022-10-19T15:11:34.429Z,12.00
2022-10-19T15:14:07.748Z,11.90
2022-10-19T15:16:47.335Z,12.00
2022-10-19T15:19:27.575Z,11.90
2022-10-19T15:22:17.209Z,11.90
2022-10-19T15:25:04.085Z,11.60
2022-10-19T15:27:36.920Z,11.60
2022-10-19T15:30:25.287Z,11.60
2022-10-19T15:33:10.234Z,11.60
2022-10-19T15:35:42.268Z,11.60
2022-10-19T15:38:22.947Z,11.70
2022-10-19T15:40:59.951Z,11.70
2022-10-19T15:43:45.594Z,11.60
2022-10-19T15:46:31.596Z,11.70
2022-10-19T15:49:05.373Z,11.70
2022-10-19T15:51:44.605Z,11.70
2022-10-19T15:54:17.143Z,11.50
2022-10-19T15:56:52.859Z,11.40
2022-10-19T15:59:23.872Z,11.40
2022-10-19T16:01:56.103Z,11.40
2022-10-19T16:04:25.089Z,11.40
2022-10-19T16:06:53.685Z,11.40
2022-10-19T16:09:23.123Z,11.40
2022-10-19T16:11:56.948Z,11.20
2022-10-19T16:14:26.409Z,11.00
2022-10-19T16:16:59.478Z,11.00
2022-10-19T16:19:28.497Z,11.10
2022-10-19T16:21:56.975Z,11.00
2022-10-19T16:24:25.411Z,11.10
2022-10-19T16:26:55.169Z,11.10
2022-10-19T16:29:28.203Z,11.00
2022-10-19T16:31:57.763Z,11.00
2022-10-19T16:34:26.942Z,11.00
2022-10-19T16:36:55.448Z,11.00
2022-10-19T16:39:25.561Z,11.10
2022-10-19T16:41:56.177Z,11.10
2022-10-19T16:44:25.524Z,11.10
2022-10-19T16:46:53.951Z,11.10
2022-10-19T16:49:22.969Z,11.10
2022-10-19T16:51:54.814Z,10.90
2022-10-19T16:54:27.179Z,10.80
2022-10-19T16:56:57.195Z,10.70
2022-10-19T16:59:25.830Z,10.70
2022-10-19T17:01:54.675Z,10.70
2022-10-19T17:04:23.533Z,10.60
2022-10-19T17:06:52.039Z,10.50
2022-10-19T17:09:40.783Z,10.40
2022-10-19T17:12:11.338Z,10.40
2022-10-19T17:14:42.393Z,10.20
2022-10-19T17:17:12.793Z,10.20
2022-10-19T17:19:41.572Z,10.20
2022-10-19T17:22:10.111Z,10.20
2022-10-19T17:24:39.924Z,10.10
2022-10-19T17:27:10.189Z,10.00
2022-10-19T17:29:39.519Z,10.00
2022-10-19T17:32:08.384Z,10.00
2022-10-19T17:34:37.257Z,9.90
2022-10-19T17:37:06.332Z,9.80
2022-10-19T17:39:34.785Z,9.70
2022-10-19T17:42:04.875Z,9.70
2022-10-19T17:44:35.256Z,9.60
2022-10-19T17:47:03.990Z,9.50
2022-10-19T17:49:32.576Z,9.40
2022-10-19T17:52:01.553Z,9.40
2022-10-19T17:54:30.057Z,9.30
2022-10-19T17:57:00.063Z,9.20
2022-10-19T17:59:34.666Z,9.20
2022-10-19T18:02:11.638Z,9.20
2022-10-19T18:04:40.523Z,9.20
2022-10-19T18:07:09.839Z,9.10
2022-10-19T18:09:39.193Z,9.00
2022-10-19T18:12:13.124Z,9.00
2022-10-19T18:14:41.908Z,9.00
2022-10-19T18:17:12.171Z,9.00
2022-10-19T18:19:40.644Z,8.80
2022-10-19T18:22:09.328Z,8.90
2022-10-19T18:24:37.845Z,8.90
2022-10-19T18:27:06.346Z,8.80
2022-10-19T18:29:34.936Z,8.70
2022-10-19T18:34:39.551Z,8.60
2022-10-19T18:37:08.152Z,8.60
2022-10-19T18:39:36.587Z,8.60
2022-10-19T18:42:05.136Z,8.60
2022-10-19T18:44:33.860Z,8.50
2022-10-19T18:47:03.138Z,8.50
2022-10-19T18:49:32.149Z,8.50
2022-10-19T18:52:01.960Z,8.50
2022-10-19T18:54:30.372Z,8.50
2022-10-19T18:56:59.393Z,8.50
2022-10-19T19:02:01.814Z,8.60
2022-10-19T19:04:34.115Z,8.60
2022-10-19T19:07:04.757Z,8.60
2022-10-19T19:09:33.252Z,8.50
2022-10-19T19:12:01.943Z,8.60
2022-10-19T19:14:30.473Z,8.60
2022-10-19T19:16:59.409Z,8.80
2022-10-19T19:19:29.757Z,8.70
2022-10-19T19:21:58.557Z,8.80
2022-10-19T19:24:31.543Z,8.80
2022-10-19T19:27:00.421Z,8.80
2022-10-19T19:29:30.394Z,8.80
2022-10-19T19:31:59.429Z,8.80
2022-10-19T19:34:27.955Z,8.70
2022-10-19T19:36:56.376Z,8.70
2022-10-19T19:39:25.134Z,8.60
2022-10-19T19:41:54.895Z,8.60
2022-10-19T19:44:24.936Z,8.60
2022-10-19T19:46:53.346Z,8.60
2022-10-19T19:49:21.884Z,8.60
2022-10-19T19:51:51.311Z,8.60
2022-10-19T19:54:20.442Z,8.60
2022-10-19T19:56:51.543Z,8.60
2022-10-19T19:59:21.417Z,8.60
2022-10-19T20:01:50.302Z,8.60
2022-10-19T20:04:19.869Z,8.70
2022-10-19T20:06:48.713Z,8.70
2022-10-19T20:09:17.181Z,8.60
2022-10-19T20:11:45.623Z,8.70
2022-10-19T20:14:14.071Z,8.60
2022-10-19T20:16:43.831Z,8.60
2022-10-19T20:19:15.080Z,8.50
2022-10-19T20:21:43.660Z,8.60
2022-10-19T20:24:12.501Z,8.60
2022-10-19T20:26:41.118Z,8.60
2022-10-19T20:29:09.542Z,8.60
2022-10-19T20:31:40.539Z,8.60
2022-10-19T20:34:13.782Z,8.60
2022-10-19T20:36:43.515Z,8.60
2022-10-19T20:39:12.464Z,8.60
2022-10-19T20:41:40.911Z,8.60
2022-10-19T20:44:10.032Z,8.70
2022-10-19T20:46:38.966Z,8.70
2022-10-19T20:49:07.461Z,8.60
2022-10-19T20:51:38.395Z,8.70
2022-10-19T20:54:11.026Z,8.70
2022-10-19T20:56:42.808Z,8.70
2022-10-19T20:59:15.561Z,8.70
2022-10-19T21:01:46.644Z,8.70
2022-10-19T21:04:16.762Z,8.70
2022-10-19T21:06:49.524Z,8.70
2022-10-19T21:09:20.551Z,8.80
2022-10-19T21:11:51.944Z,8.70
2022-10-19T21:14:27.209Z,8.70
2022-10-19T21:16:59.288Z,8.70
2022-10-19T21:19:30.877Z,8.70
2022-10-19T21:22:04.176Z,8.70
2022-10-19T21:24:36.470Z,8.70
2022-10-19T21:27:08.975Z,8.70
2022-10-19T21:29:38.331Z,8.70
2022-10-19T21:32:06.918Z,8.70
2022-10-19T21:34:35.655Z,8.70
2022-10-19T21:37:06.006Z,8.60
2022-10-19T21:39:34.559Z,8.60
2022-10-19T21:42:03.588Z,8.60
2022-10-19T21:44:32.535Z,8.60
2022-10-19T21:47:00.928Z,8.60
2022-10-19T21:49:29.756Z,8.60
2022-10-19T21:51:58.493Z,8.70
2022-10-19T21:54:29.182Z,8.60
2022-10-19T21:57:00.244Z,8.60
2022-10-19T21:59:29.371Z,8.70
2022-10-19T22:01:59.718Z,8.60
2022-10-19T22:04:28.700Z,8.60
2022-10-19T22:06:59.445Z,8.60
2022-10-19T22:09:29.515Z,8.60
2022-10-19T22:11:57.939Z,8.60
2022-10-19T22:14:26.369Z,8.60
2022-10-19T22:16:55.313Z,8.50
2022-10-19T22:19:26.168Z,8.50
2022-10-19T22:21:55.039Z,8.50
2022-10-19T22:24:23.504Z,8.50
2022-10-19T22:26:53.643Z,8.50
2022-10-19T22:29:22.391Z,8.50
2022-10-19T22:31:51.076Z,8.50
2022-10-19T22:34:19.861Z,8.50
2022-10-19T22:36:48.920Z,8.50
2022-10-19T22:39:18.236Z,8.50
2022-10-19T22:41:46.765Z,8.40
2022-10-19T22:44:17.353Z,8.40
2022-10-19T22:46:46.072Z,8.30
2022-10-19T22:49:14.477Z,8.30
2022-10-19T22:51:42.840Z,8.40
2022-10-19T22:54:11.317Z,8.30
2022-10-19T22:56:40.677Z,8.30
2022-10-19T22:59:10.675Z,8.20
2022-10-19T23:01:41.417Z,8.20
2022-10-19T23:04:09.863Z,8.20
2022-10-19T23:06:38.677Z,8.20
2022-10-19T23:09:07.053Z,8.10
2022-10-19T23:11:35.621Z,8.10
2022-10-19T23:14:04.205Z,8.10
2022-10-19T23:16:32.599Z,8.10
2022-10-19T23:19:02.325Z,8.10
2022-10-19T23:21:30.741Z,8.10
2022-10-19T23:23:59.694Z,8.00
2022-10-19T23:26:28.675Z,8.10
2022-10-19T23:28:57.037Z,8.00
2022-10-19T23:31:30.061Z,8.10
2022-10-19T23:33:58.974Z,8.00
2022-10-19T23:36:30.511Z,8.00
2022-10-19T23:38:59.500Z,8.00
2022-10-19T23:41:27.957Z,8.00
2022-10-19T23:43:56.432Z,7.90
2022-10-19T23:46:25.009Z,7.90
2022-10-19T23:48:53.428Z,7.90
2022-10-19T23:51:23.592Z,7.90
2022-10-19T23:53:54.004Z,8.00
2022-10-19T23:56:26.782Z,8.00
2022-10-19T23:58:56.343Z,8.00
